Data for 03/20/2005

Time Sea-Level Adjusted Pressure Absolute Pressure Temperature Relative Humidity Dew Point   
(mb) (inHg) (mb) (inHg) (C) (F) (%) (C) (F)
00:05 1006 29.71 835 24.66 1.3 34.4 76 -2.4 27.7
00:10 1006 29.71 835 24.66 1 33.8 79 -2.3 27.9
00:15 1006 29.71 835 24.66 0.5 32.9 82 -2.3 27.8
00:20 1006 29.71 835 24.66 0.1 32.2 83 -2.4 27.7
00:25 1006 29.71 835 24.66 -0.2 31.7 83 -2.7 27.2
00:30 1006 29.71 835 24.66 -0.3 31.4 84 -2.8 27
00:35 1006 29.71 835 24.66 -0.5 31.1 85 -2.8 27
00:40 1006 29.71 835 24.66 -0.5 31 85 -2.8 26.9
00:45 1006 29.71 835 24.66 -0.5 31 85 -2.8 26.9
00:50 1006 29.71 835 24.66 -0.5 31.1 85 -2.8 27
00:55 1006 29.71 835 24.66 -0.7 30.8 84 -3.1 26.5
01:00 1006 29.71 835 24.66 -0.8 30.6 83 -3.3 26.1
01:05 1006 29.71 835 24.66 -1 30.2 84 -3.4 26
01:10 1006 29.71 835 24.66 -1.4 29.5 87 -3.3 26
01:15 1006 29.71 835 24.66 -1.9 28.6 89 -3.5 25.6
01:20 1006 29.71 835 24.66 -2.1 28.2 89 -3.7 25.4
01:25 1006 29.71 835 24.66 -2.2 28 89 -3.8 25.2
01:30 1006 29.71 835 24.66 -2.2 28.1 88 -3.9 25
01:35 1006 29.71 835 24.66 -2.3 27.9 89 -3.9 25
01:40 1006 29.71 835 24.66 -2.3 27.9 90 -3.7 25.3
01:45 1006 29.71 835 24.66 -2.1 28.3 89 -3.7 25.4
01:50 1006 29.71 835 24.66 -1.7 28.9 88 -3.4 25.8
01:55 1006 29.71 835 24.66 -1.6 29.1 88 -3.3 26
02:00 1006 29.71 835 24.66 -1.6 29.2 87 -3.5 25.7
02:05 1006 29.71 835 24.66 -1.6 29.2 87 -3.5 25.8
02:10 1006 29.71 835 24.66 -1.6 29.1 87 -3.5 25.6
02:15 1005 29.68 835 24.66 -1.6 29.1 86 -3.6 25.5
02:20 1005 29.68 835 24.66 -1.8 28.8 86 -3.8 25.2
02:25 1006 29.71 835 24.66 -1.8 28.8 85 -4 24.8
02:30 1005 29.68 835 24.66 -1.8 28.7 85 -4.1 24.7
02:35 1005 29.68 835 24.66 -1.9 28.6 86 -3.9 24.9
02:40 1005 29.68 834 24.63 -1.6 29.1 88 -3.3 26
02:45 1005 29.68 834 24.63 -1.1 30 87 -3 26.6
02:50 1005 29.68 834 24.63 -0.8 30.6 86 -2.8 26.9
02:55 1005 29.68 834 24.63 -0.6 30.8 85 -2.8 27
03:00 1005 29.68 834 24.63 -0.6 31 85 -2.8 27
03:05 1005 29.68 834 24.63 -0.8 30.6 84 -3.1 26.4
03:10 1005 29.68 834 24.63 -1.2 29.8 84 -3.6 25.6
03:15 1005 29.68 834 24.63 -1.4 29.4 85 -3.7 25.3
03:20 1005 29.68 834 24.63 -1.3 29.6 81 -4.1 24.5
03:25 1005 29.68 834 24.63 -1.6 29.2 82 -4.3 24.3
03:30 1005 29.68 834 24.63 -1.8 28.7 82 -4.5 23.9
03:35 1005 29.68 834 24.63 -2 28.4 84 -4.4 24
03:40 1005 29.68 834 24.63 -2.4 27.7 85 -4.6 23.7
03:45 1005 29.68 834 24.63 -2.4 27.6 85 -4.6 23.7
03:50 1005 29.68 834 24.63 -2.4 27.7 85 -4.7 23.6
03:55 1005 29.68 834 24.63 -2.3 27.8 84 -4.8 23.4
04:00 1005 29.68 834 24.63 -2.5 27.6 85 -4.6 23.7
04:05 1005 29.68 834 24.63 -2.4 27.7 84 -4.8 23.4
04:10 1005 29.68 834 24.63 -2.5 27.6 84 -4.7 23.5
04:15 1005 29.68 834 24.63 -2.3 27.8 83 -4.9 23.2
04:20 1005 29.68 834 24.63 -2.3 27.9 83 -4.8 23.3
04:25 1005 29.68 834 24.63 -2.1 28.2 82 -4.8 23.4
04:30 1005 29.68 834 24.63 -2.2 28.1 83 -4.7 23.6
04:35 1005 29.68 834 24.63 -2.4 27.8 84 -4.8 23.4
04:40 1005 29.68 834 24.63 -2.4 27.8 84 -4.8 23.4
04:45 1005 29.68 834 24.63 -2.5 27.5 84 -4.8 23.4
04:50 1005 29.68 834 24.63 -2.7 27.2 86 -4.8 23.4
04:55 1005 29.68 834 24.63 -2.8 27 86 -4.9 23.2
05:00 1005 29.68 834 24.63 -2.7 27.1 85 -4.9 23.2
05:05 1005 29.68 834 24.63 -2.7 27.1 85 -4.9 23.1
05:10 1005 29.68 834 24.63 -2.8 27 86 -4.8 23.3
05:15 1005 29.68 834 24.63 -3 26.7 87 -4.9 23.2
05:20 1005 29.68 834 24.63 -3.1 26.5 88 -4.8 23.3
05:25 1005 29.68 834 24.63 -3.1 26.4 87 -5 23
05:30 1005 29.68 834 24.63 -3.1 26.4 88 -4.8 23.3
05:35 1005 29.68 834 24.63 -3.3 26.1 89 -4.9 23.2
05:40 1005 29.68 834 24.63 -3.6 25.5 91 -4.9 23.1
05:45 1005 29.68 834 24.63 -3.9 25.1 91 -5.1 22.9
05:50 1005 29.68 835 24.66 -3.9 24.9 91 -5.2 22.7
05:55 1005 29.68 835 24.66 -4 24.9 91 -5.3 22.5
06:00 1005 29.68 835 24.66 -3.7 25.3 90 -5.1 22.7
06:05 1005 29.68 835 24.66 -3.6 25.5 89 -5.1 22.8
06:10 1005 29.68 835 24.66 -3.8 25.2 89 -5.4 22.4
06:15 1005 29.68 835 24.66 -3.6 25.5 89 -5.2 22.6
06:20 1005 29.68 835 24.66 -3.5 25.8 88 -5.1 22.8
06:25 1005 29.68 835 24.66 -3.5 25.8 89 -5.1 22.9
06:30 1006 29.71 835 24.66 -3.6 25.5 90 -5 23
06:35 1006 29.71 835 24.66 -3.6 25.5 90 -5 23
06:40 1006 29.71 835 24.66 -3.5 25.7 91 -4.8 23.3
06:45 1006 29.71 835 24.66 -3.3 26 89 -4.9 23.2
06:50 1006 29.71 835 24.66 -3.1 26.4 88 -4.8 23.4
06:55 1006 29.71 835 24.66 -3 26.6 88 -4.7 23.6
07:00 1006 29.71 835 24.66 -2.9 26.8 88 -4.7 23.6
07:05 1006 29.71 835 24.66 -2.8 26.9 88 -4.6 23.7
07:10 1006 29.71 835 24.66 -2.7 27.1 87 -4.6 23.7
07:15 1006 29.71 835 24.66 -2.5 27.6 86 -4.4 24
07:20 1006 29.71 835 24.66 -2.3 27.9 86 -4.3 24.2
07:25 1006 29.71 835 24.66 -2.2 28.1 85 -4.4 24.1
07:30 1006 29.71 835 24.66 -2 28.4 84 -4.3 24.3
07:35 1006 29.71 835 24.66 -2.2 28 85 -4.4 24.1
07:40 1006 29.71 835 24.66 -2.2 28 85 -4.3 24.2
07:45 1006 29.71 835 24.66 -2.1 28.2 85 -4.3 24.2
07:50 1006 29.71 835 24.66 -2.2 28.1 85 -4.3 24.3
07:55 1006 29.71 835 24.66 -2.1 28.2 86 -4.2 24.5
08:00 1006 29.71 835 24.66 -2.2 28 87 -4.2 24.5
08:05 1006 29.71 835 24.66 -2.3 27.8 87 -4.2 24.4
08:10 1006 29.71 835 24.66 -2.4 27.6 89 -4.1 24.7
08:15 1006 29.71 835 24.66 -2.5 27.5 90 -3.9 24.9
08:20 1006 29.71 835 24.66 -2.6 27.3 91 -3.9 24.9
08:25 1006 29.71 835 24.66 -2.7 27.1 91 -4 24.9
08:30 1006 29.71 835 24.66 -2.9 26.8 94 -3.8 25.2
08:35 1006 29.71 835 24.66 -2.8 27 94 -3.7 25.4
08:40 1006 29.71 836 24.69 -2.5 27.4 92 -3.6 25.5
08:45 1006 29.71 836 24.69 -2.7 27.2 93 -3.7 25.4
08:50 1006 29.71 836 24.69 -2.8 27 95 -3.5 25.7
08:55 1007 29.74 836 24.69 -2.5 27.6 94 -3.3 26.1
09:00 1007 29.74 836 24.69 -2.3 27.8 94 -3.2 26.3
09:05 1007 29.74 836 24.69 -2.1 28.2 93 -3.2 26.3
09:10 1007 29.74 836 24.69 -2.3 27.8 92 -3.4 25.9
09:15 1007 29.74 836 24.69 -2.7 27.1 96 -3.2 26.2
09:20 1007 29.74 836 24.69 -2.4 27.6 94 -3.2 26.2
09:25 1007 29.74 836 24.69 -2.2 28.1 93 -3.2 26.3
09:30 1007 29.74 836 24.69 -2.2 28.1 93 -3.2 26.3
09:35 1007 29.74 836 24.69 -2.1 28.2 93 -3.1 26.4
09:40 1007 29.74 836 24.69 -2 28.3 93 -3 26.7
09:45 1007 29.74 836 24.69 -2.1 28.2 93 -3.1 26.4
09:50 1007 29.74 836 24.69 -2.5 27.5 94 -3.3 26
09:55 1007 29.74 836 24.69 -2.8 27 97 -3.2 26.2
10:00 1007 29.74 836 24.69 -2.7 27.2 96 -3.3 26.1
10:05 1007 29.74 836 24.69 -2.8 26.9 97 -3.2 26.2
10:10 1007 29.74 836 24.69 -2.9 26.8 98 -3.2 26.3
10:15 1007 29.74 836 24.69 -2.8 27 98 -3.1 26.5
10:20 1007 29.74 836 24.69 -2.6 27.3 98 -2.9 26.8
10:25 1007 29.74 836 24.69 -2.4 27.7 97 -2.8 27
10:30 1007 29.74 836 24.69 -2.3 27.8 98 -2.7 27.2
10:35 1007 29.74 836 24.69 -2.1 28.3 97 -2.4 27.6
10:40 1007 29.74 836 24.69 -1.8 28.8 97 -2.2 28
10:45 1007 29.74 836 24.69 -1.4 29.5 96 -1.9 28.5
10:50 1007 29.74 836 24.69 -1.1 30.1 96 -1.6 29
10:55 1007 29.74 836 24.69 -0.8 30.6 95 -1.5 29.3
11:00 1007 29.74 836 24.69 -0.5 31.1 95 -1.2 29.8
11:05 1007 29.74 836 24.69 -0.2 31.6 93 -1.2 29.8
11:10 1007 29.74 836 24.69 -0.2 31.7 94 -1 30.2
11:15 1007 29.74 836 24.69 0 32 94 -0.8 30.5
11:20 1007 29.74 836 24.69 0.4 32.7 94 -0.5 31.2
11:25 1007 29.74 836 24.69 0.8 33.5 92 -0.3 31.5
11:30 1007 29.74 836 24.69 1.1 33.9 93 0 32
11:35 1007 29.74 836 24.69 1.4 34.6 92 0.3 32.5
11:40 1007 29.74 836 24.69 1.9 35.5 91 0.7 33.2
11:45 1007 29.74 836 24.69 2.4 36.2 89 0.7 33.3
11:50 1007 29.74 836 24.69 2.6 36.7 87 0.7 33.3
11:55 1007 29.74 836 24.69 2.7 36.8 87 0.7 33.3
12:00 1007 29.74 836 24.69 2.5 36.5 88 0.8 33.4
12:05 1007 29.74 836 24.69 2.3 36.1 89 0.7 33.3
12:10 1007 29.74 836 24.69 2.4 36.4 89 0.8 33.4
12:15 1007 29.74 836 24.69 2.3 36.2 90 0.8 33.4
12:20 1007 29.74 836 24.69 2.7 36.8 88 0.9 33.7
12:25 1007 29.74 836 24.69 3.1 37.5 88 1.2 34.1
12:30 1007 29.74 836 24.69 3.2 37.7 87 1.2 34.2
12:35 1007 29.74 836 24.69 3.3 38 86 1.2 34.2
12:40 1007 29.74 836 24.69 3.8 38.8 84 1.3 34.3
12:45 1007 29.74 836 24.69 3.9 39 84 1.5 34.7
12:50 1007 29.74 836 24.69 4 39.2 83 1.4 34.4
12:55 1007 29.74 836 24.69 4.2 39.5 83 1.6 34.9
13:00 1007 29.74 836 24.69 4.2 39.6 83 1.6 34.9
13:05 1007 29.74 836 24.69 4.3 39.7 83 1.7 35.1
13:10 1007 29.74 836 24.69 4.5 40.1 82 1.7 35.1
13:15 1007 29.74 836 24.69 5.2 41.4 79 1.8 35.3
13:20 1007 29.74 836 24.69 5.6 42 75 1.5 34.8
13:25 1007 29.74 836 24.69 5.5 41.9 77 1.7 35.1
13:30 1007 29.74 836 24.69 5.1 41.2 79 1.7 35.1
13:35 1007 29.74 836 24.69 5.1 41.2 78 1.6 34.8
13:40 1007 29.74 836 24.69 5.1 41.2 79 1.8 35.2
13:45 1007 29.74 836 24.69 5.1 41.1 78 1.6 34.9
13:50 1007 29.74 836 24.69 5.5 41.8 76 1.6 34.9
13:55 1007 29.74 836 24.69 5.6 42 76 1.8 35.2
14:00 1007 29.74 836 24.69 5.9 42.5 75 1.7 35.1
14:05 1007 29.74 836 24.69 5.8 42.4 75 1.7 35.1
14:10 1007 29.74 836 24.69 6 42.8 75 1.9 35.4
14:15 1007 29.74 836 24.69 6.1 42.9 76 2.1 35.8
14:20 1007 29.74 836 24.69 6 42.7 74 1.7 35
14:25 1007 29.74 836 24.69 5.6 42 78 2.1 35.7
14:30 1007 29.74 836 24.69 5.6 42 76 1.7 35.1
14:35 1007 29.74 836 24.69 5.9 42.7 73 1.5 34.7
14:40 1007 29.74 836 24.69 6.2 43.2 74 1.9 35.4
14:45 1007 29.74 836 24.69 6.4 43.6 72 1.8 35.2
14:50 1007 29.74 836 24.69 6.3 43.3 73 1.8 35.2
14:55 1007 29.74 836 24.69 6.4 43.6 72 1.8 35.2
15:00 1007 29.74 836 24.69 7.1 44.9 68 1.6 34.9
15:05 1007 29.74 836 24.69 6.8 44.2 70 1.7 35.1
15:10 1007 29.74 836 24.69 6.7 44 69 1.4 34.6
15:15 1007 29.74 836 24.69 7.2 44.9 67 1.6 34.8
15:20 1007 29.74 836 24.69 7 44.5 67 1.2 34.2
15:25 1007 29.74 836 24.69 7 44.5 67 1.2 34.2
15:30 1007 29.74 836 24.69 7 44.6 67 1.4 34.5
15:35 1007 29.74 836 24.69 7.1 44.9 66 1.3 34.4
15:40 1007 29.74 836 24.69 7.3 45.2 67 1.5 34.7
15:45 1007 29.74 836 24.69 7.1 44.7 67 1.3 34.3
15:50 1007 29.74 836 24.69 7 44.6 66 1.1 33.9
15:55 1007 29.74 836 24.69 7 44.6 65 1 33.8
16:00 1007 29.74 837 24.72 6.9 44.5 67 1.3 34.3
16:05 1007 29.74 837 24.72 7.2 45 67 1.5 34.6
16:10 1007 29.74 837 24.72 7.5 45.6 67 1.8 35.2
16:15 1007 29.74 837 24.72 7.3 45.2 66 1.4 34.5
16:20 1007 29.74 837 24.72 7.1 44.7 67 1.3 34.4
16:25 1008 29.77 837 24.72 6.7 44 68 1.3 34.3
16:30 1008 29.77 837 24.72 7.1 44.8 65 1 33.8
16:35 1008 29.77 837 24.72 7.3 45.2 66 1.3 34.4
16:40 1008 29.77 837 24.72 7.5 45.4 70 2.4 36.2
16:45 1008 29.77 837 24.72 7.5 45.5 72 2.9 37.1
16:50 1008 29.77 837 24.72 7.4 45.4 72 2.7 36.8
16:55 1008 29.77 837 24.72 7.2 45 73 2.7 36.9
17:00 1008 29.77 837 24.72 7.2 45 73 2.7 36.8
17:05 1008 29.77 837 24.72 7.1 44.7 72 2.4 36.3
17:10 1008 29.77 837 24.72 7 44.5 72 2.3 36.2
17:15 1008 29.77 837 24.72 6.8 44.3 73 2.3 36.2
17:20 1008 29.77 837 24.72 6.7 44 74 2.4 36.3
17:25 1008 29.77 837 24.72 6.5 43.8 75 2.4 36.4
17:30 1008 29.77 837 24.72 6.5 43.7 76 2.5 36.5
17:35 1008 29.77 837 24.72 6.4 43.5 75 2.2 36
17:40 1008 29.77 837 24.72 6 42.8 73 1.5 34.6
17:45 1008 29.77 837 24.72 5.2 41.4 75 1.1 33.9
17:50 1008 29.77 837 24.72 4.7 40.5 77 1.1 34
17:55 1008 29.77 837 24.72 4.7 40.4 79 1.4 34.5
18:00 1008 29.77 837 24.72 5.2 41.3 80 2 35.5
18:05 1008 29.77 837 24.72 5.4 41.7 81 2.3 36.2
18:10 1008 29.77 838 24.75 5.3 41.5 81 2.3 36.2
18:15 1008 29.77 838 24.75 5.1 41.3 81 2.2 36
18:20 1008 29.77 838 24.75 5 40.9 81 2 35.6
18:25 1009 29.8 838 24.75 4.8 40.7 81 1.8 35.3
18:30 1009 29.8 838 24.75 4.8 40.6 81 1.9 35.4
18:35 1009 29.8 838 24.75 4.8 40.6 81 1.8 35.3
18:40 1009 29.8 838 24.75 4.7 40.5 82 1.9 35.4
18:45 1009 29.8 838 24.75 4.5 40.1 81 1.6 34.9
18:50 1009 29.8 838 24.75 4.4 39.9 83 1.7 35.1
18:55 1009 29.8 838 24.75 4.4 39.9 83 1.7 35.1
19:00 1009 29.8 838 24.75 4.3 39.8 83 1.8 35.2
19:05 1009 29.8 838 24.75 4.3 39.7 83 1.7 35
19:10 1009 29.8 838 24.75 4.3 39.7 83 1.7 35
19:15 1009 29.8 838 24.75 4.2 39.5 85 1.8 35.2
19:20 1009 29.8 838 24.75 4.1 39.4 85 1.8 35.2
19:25 1009 29.8 838 24.75 4 39.3 85 1.8 35.3
19:30 1009 29.8 838 24.75 3.9 39.1 86 1.8 35.2
19:35 1009 29.8 839 24.78 4 39.2 86 1.9 35.5
19:40 1009 29.8 839 24.78 4 39.2 86 1.8 35.3
19:45 1009 29.8 839 24.78 3.9 39 86 1.8 35.2
19:50 1009 29.8 839 24.78 3.8 38.8 86 1.6 34.9
19:55 1009 29.8 839 24.78 3.2 37.8 89 1.5 34.7
20:00 1010 29.83 839 24.78 2.9 37.2 91 1.5 34.7
20:05 1010 29.83 839 24.78 2.5 36.6 92 1.4 34.5
20:10 1010 29.83 839 24.78 2.5 36.4 93 1.5 34.7
20:15 1010 29.83 839 24.78 2.6 36.6 93 1.6 34.9
20:20 1010 29.83 839 24.78 2.7 36.9 93 1.8 35.2
20:25 1010 29.83 839 24.78 2.8 37 93 1.7 35.1
20:30 1010 29.83 839 24.78 2.6 36.7 93 1.6 34.8
20:35 1010 29.83 839 24.78 2.4 36.4 93 1.4 34.5
20:40 1010 29.83 839 24.78 2.4 36.3 92 1.2 34.2
20:45 1010 29.83 839 24.78 2.3 36.1 92 1.1 34
20:50 1010 29.83 839 24.78 2.2 36 93 1.2 34.2
20:55 1010 29.83 839 24.78 2.5 36.5 91 1.2 34.2
21:00 1010 29.83 839 24.78 2.6 36.8 92 1.4 34.5
21:05 1010 29.83 839 24.78 2.5 36.4 92 1.3 34.3
21:10 1010 29.83 839 24.78 2.3 36.1 93 1.2 34.1
21:15 1010 29.83 839 24.78 2.1 35.7 94 1.2 34.1
21:20 1010 29.83 839 24.78 2 35.5 94 1 33.9
21:25 1010 29.83 839 24.78 1.9 35.4 94 1.1 33.9
21:30 1010 29.83 839 24.78 1.8 35.2 94 1 33.8
21:35 1010 29.83 839 24.78 1.7 35.1 95 0.9 33.6
21:40 1010 29.83 840 24.81 1.5 34.7 95 0.8 33.4
21:45 1010 29.83 840 24.81 1.5 34.6 95 0.7 33.3
21:50 1010 29.83 840 24.81 1.4 34.5 95 0.7 33.2
21:55 1010 29.83 840 24.81 1.3 34.4 95 0.6 33.2
22:00 1010 29.83 840 24.81 1.3 34.4 95 0.7 33.2
22:05 1010 29.83 840 24.81 1.3 34.4 95 0.6 33.1
22:10 1010 29.83 840 24.81 1.4 34.5 95 0.7 33.2
22:15 1010 29.83 840 24.81 1.5 34.7 95 0.7 33.3
22:20 1011 29.85 840 24.81 1.6 34.9 94 0.7 33.3
22:25 1011 29.85 840 24.81 1.6 34.9 95 0.9 33.5
22:30 1011 29.85 840 24.81 1.6 34.9 95 0.9 33.6
22:35 1011 29.85 840 24.81 1.8 35.2 94 1 33.7
22:40 1011 29.85 840 24.81 1.9 35.4 93 0.8 33.5
22:45 1011 29.85 840 24.81 1.9 35.4 93 0.9 33.6
22:50 1011 29.85 840 24.81 2 35.5 93 0.9 33.6
22:55 1011 29.85 840 24.81 2 35.6 93 1 33.7
23:00 1011 29.85 840 24.81 1.8 35.3 94 1 33.8
23:05 1011 29.85 840 24.81 1.8 35.2 94 1 33.8
23:10 1011 29.85 840 24.81 1.7 35.1 94 0.9 33.7
23:15 1011 29.85 840 24.81 1.3 34.3 97 0.8 33.4
23:20 1011 29.85 840 24.81 1 33.8 98 0.7 33.3
23:25 1011 29.85 840 24.81 1.2 34.2 98 0.9 33.6
23:30 1011 29.85 840 24.81 1.4 34.5 96 0.8 33.5
23:35 1011 29.85 840 24.81 1.3 34.4 96 0.7 33.3
23:40 1011 29.85 840 24.81 1.1 33.9 97 0.7 33.2
23:45 1011 29.85 840 24.81 1.1 33.9 97 0.7 33.3
23:50 1011 29.85 840 24.81 1.1 34 97 0.7 33.3
23:55 1011 29.85 840 24.81 1.2 34.1 97 0.8 33.4
24:00 1011 29.85 840 24.81 1.2 34.1 97 0.7 33.3